createdAt,value
2024-01-24T00:00:37.401Z,9.50
2024-01-24T00:03:06.662Z,9.50
2024-01-24T00:05:36.301Z,9.70
2024-01-24T00:08:05.354Z,9.70
2024-01-24T00:10:34.068Z,9.80
2024-01-24T00:13:02.814Z,9.80
2024-01-24T00:15:30.925Z,9.90
2024-01-24T00:17:59.313Z,10.00
2024-01-24T00:20:28.092Z,10.00
2024-01-24T00:22:57.482Z,10.10
2024-01-24T00:25:25.842Z,10.10
2024-01-24T00:27:53.846Z,10.10
2024-01-24T00:30:25.153Z,10.10
2024-01-24T00:36:53.945Z,10.10
2024-01-24T00:39:23.468Z,10.20
2024-01-24T00:41:52.198Z,10.10
2024-01-24T00:44:20.230Z,10.10
2024-01-24T00:46:48.948Z,10.20
2024-01-24T00:49:17.398Z,10.20
2024-01-24T00:51:46.361Z,10.30
2024-01-24T00:54:15.788Z,10.30
2024-01-24T00:56:45.784Z,10.30
2024-01-24T00:59:14.594Z,10.30
2024-01-24T01:01:42.733Z,10.30
2024-01-24T01:04:11.523Z,10.40
2024-01-24T01:06:40.160Z,10.40
2024-01-24T01:09:09.957Z,10.30
2024-01-24T01:11:38.060Z,10.40
2024-01-24T01:14:08.201Z,10.40
2024-01-24T01:16:36.249Z,10.40
2024-01-24T01:19:04.520Z,10.50
2024-01-24T01:21:33.534Z,10.50
2024-01-24T01:24:01.636Z,10.50
2024-01-24T01:26:30.574Z,10.60
2024-01-24T01:28:58.752Z,10.50
2024-01-24T01:31:28.955Z,10.50
2024-01-24T01:33:57.153Z,10.40
2024-01-24T01:36:26.228Z,10.40
2024-01-24T01:38:54.257Z,10.40
2024-01-24T01:41:22.324Z,10.40
2024-01-24T01:43:51.104Z,10.20
2024-01-24T01:46:20.426Z,10.20
2024-01-24T01:48:52.622Z,10.50
2024-01-24T01:51:21.405Z,10.30
2024-01-24T01:53:51.514Z,10.20
2024-01-24T01:56:20.794Z,10.10
2024-01-24T01:58:51.276Z,10.00
2024-01-24T02:01:20.142Z,10.00
2024-01-24T02:03:48.517Z,10.10
2024-01-24T02:06:19.099Z,10.10
2024-01-24T02:08:47.431Z,10.00
2024-01-24T02:11:16.652Z,10.00
2024-01-24T02:13:44.719Z,10.00
2024-01-24T02:16:17.349Z,10.10
2024-01-24T02:18:47.547Z,10.00
2024-01-24T02:21:17.822Z,10.00
2024-01-24T02:23:46.466Z,10.00
2024-01-24T02:26:17.107Z,10.10
2024-01-24T02:28:45.112Z,10.00
2024-01-24T02:31:13.880Z,9.90
2024-01-24T02:33:41.982Z,9.80
2024-01-24T02:36:11.790Z,9.90
2024-01-24T02:38:39.849Z,9.90
2024-01-24T02:41:09.251Z,9.90
2024-01-24T02:43:38.655Z,9.80
2024-01-24T02:46:06.832Z,10.00
2024-01-24T02:48:35.077Z,10.00
2024-01-24T02:51:04.070Z,10.00
2024-01-24T02:53:32.260Z,10.20
2024-01-24T02:56:01.081Z,10.20
2024-01-24T02:58:29.086Z,10.30
2024-01-24T03:00:59.333Z,10.20
2024-01-24T03:03:27.765Z,10.30
2024-01-24T03:05:56.655Z,10.20
2024-01-24T03:08:24.666Z,10.30
2024-01-24T03:10:53.412Z,10.20
2024-01-24T03:13:21.480Z,10.30
2024-01-24T03:15:49.888Z,10.20
2024-01-24T03:18:20.239Z,10.30
2024-01-24T03:20:48.548Z,10.40
2024-01-24T03:23:18.607Z,10.50
2024-01-24T03:25:46.840Z,10.60
2024-01-24T03:28:15.572Z,10.60
2024-01-24T03:30:43.665Z,10.70
2024-01-24T03:33:12.012Z,10.80
2024-01-24T03:35:41.391Z,10.80
2024-01-24T03:38:10.072Z,10.80
2024-01-24T03:40:38.105Z,10.90
2024-01-24T03:43:07.221Z,10.90
2024-01-24T03:45:36.633Z,10.90
2024-01-24T03:48:05.214Z,10.90
2024-01-24T03:50:34.349Z,10.90
2024-01-24T03:53:04.197Z,10.90
2024-01-24T03:55:32.915Z,10.90
2024-01-24T03:58:01.058Z,11.00
2024-01-24T04:00:30.546Z,10.90
2024-01-24T04:02:58.694Z,11.00
2024-01-24T04:05:27.424Z,11.00
2024-01-24T04:07:55.494Z,11.00
2024-01-24T04:10:25.756Z,11.00
2024-01-24T04:12:53.827Z,11.00
2024-01-24T04:15:23.923Z,11.10
2024-01-24T04:17:52.082Z,11.10
2024-01-24T04:20:20.821Z,11.00
2024-01-24T04:26:50.668Z,11.10
2024-01-24T04:29:19.377Z,11.10
2024-01-24T04:31:47.391Z,11.10
2024-01-24T04:34:18.642Z,11.10
2024-01-24T04:36:46.727Z,11.00
2024-01-24T04:39:14.888Z,11.10
2024-01-24T04:41:43.450Z,11.10
2024-01-24T04:44:12.831Z,11.10
2024-01-24T04:46:40.855Z,11.10
2024-01-24T04:49:22.652Z,11.20
2024-01-24T04:51:59.215Z,11.20
2024-01-24T04:54:27.264Z,11.20
2024-01-24T04:56:55.845Z,11.20
2024-01-24T04:59:25.240Z,11.20
2024-01-24T05:01:54.521Z,11.20
2024-01-24T05:04:23.116Z,11.20
2024-01-24T05:06:51.244Z,11.20
2024-01-24T05:09:19.708Z,11.20
2024-01-24T05:11:48.311Z,11.30
2024-01-24T05:14:16.375Z,11.40
2024-01-24T05:16:46.242Z,11.40
2024-01-24T05:19:14.460Z,11.50
2024-01-24T05:21:43.692Z,11.60
2024-01-24T05:24:13.028Z,11.70
2024-01-24T05:26:41.223Z,11.70
2024-01-24T05:29:09.740Z,11.80
2024-01-24T05:31:37.792Z,11.80
2024-01-24T05:34:07.219Z,11.90
2024-01-24T05:36:35.954Z,11.80
2024-01-24T05:39:08.254Z,11.80
2024-01-24T05:41:38.004Z,12.00
2024-01-24T05:44:06.364Z,12.00
2024-01-24T05:46:34.930Z,12.00
2024-01-24T05:49:03.638Z,12.10
2024-01-24T05:51:33.142Z,12.10
2024-01-24T05:54:02.365Z,12.00
2024-01-24T05:56:30.398Z,12.10
2024-01-24T05:58:58.462Z,12.20
2024-01-24T06:01:27.195Z,12.20
2024-01-24T06:03:55.399Z,12.10
2024-01-24T06:06:24.381Z,12.10
2024-01-24T06:08:54.083Z,12.10
2024-01-24T06:11:22.128Z,12.10
2024-01-24T06:13:50.196Z,12.10
2024-01-24T06:16:18.250Z,12.10
2024-01-24T06:18:46.381Z,12.10
2024-01-24T06:21:15.046Z,12.10
2024-01-24T06:23:43.130Z,12.20
2024-01-24T06:26:12.609Z,12.20
2024-01-24T06:28:41.240Z,12.20
2024-01-24T06:31:09.344Z,12.20
2024-01-24T06:33:37.569Z,12.20
2024-01-24T06:36:06.747Z,12.30
2024-01-24T06:38:34.778Z,12.30
2024-01-24T06:41:02.905Z,12.30
2024-01-24T06:43:32.885Z,12.40
2024-01-24T06:46:04.087Z,12.50
2024-01-24T06:48:32.740Z,12.40
2024-01-24T06:51:00.916Z,12.40
2024-01-24T06:53:28.984Z,12.40
2024-01-24T06:55:58.592Z,12.30
2024-01-24T06:58:26.703Z,12.30
2024-01-24T07:00:57.790Z,12.10
2024-01-24T07:03:26.036Z,12.00
2024-01-24T07:05:54.225Z,12.00
2024-01-24T07:08:22.897Z,12.00
2024-01-24T07:10:51.190Z,12.00
2024-01-24T07:13:19.767Z,12.00
2024-01-24T07:15:47.975Z,12.00
2024-01-24T07:18:17.609Z,12.10
2024-01-24T07:20:46.368Z,12.20
2024-01-24T07:23:14.467Z,12.20
2024-01-24T07:25:42.642Z,12.20
2024-01-24T07:28:11.246Z,12.20
2024-01-24T07:30:39.300Z,12.30
2024-01-24T07:33:07.489Z,12.30
2024-01-24T07:35:37.364Z,12.30
2024-01-24T07:38:07.713Z,12.40
2024-01-24T07:40:36.298Z,12.40
2024-01-24T07:43:04.493Z,12.50
2024-01-24T07:45:33.209Z,12.50
2024-01-24T07:48:01.923Z,12.60
2024-01-24T07:50:30.028Z,12.60
2024-01-24T07:52:59.472Z,12.70
2024-01-24T07:55:36.676Z,12.80
2024-01-24T07:58:14.538Z,12.80
2024-01-24T08:00:43.744Z,12.90
2024-01-24T08:03:11.998Z,12.90
2024-01-24T08:05:40.152Z,12.90
2024-01-24T08:08:10.306Z,12.90
2024-01-24T08:10:38.781Z,13.00
2024-01-24T08:13:07.647Z,13.00
2024-01-24T08:15:36.255Z,13.10
2024-01-24T08:18:04.662Z,13.10
2024-01-24T08:20:33.435Z,13.10
2024-01-24T08:23:01.493Z,13.10
2024-01-24T08:25:30.937Z,13.20
2024-01-24T08:27:59.648Z,13.20
2024-01-24T08:30:27.820Z,13.20
2024-01-24T08:32:56.520Z,13.30
2024-01-24T08:35:24.668Z,13.30
2024-01-24T08:37:52.788Z,13.30
2024-01-24T08:40:22.854Z,13.30
2024-01-24T08:42:52.323Z,13.40
2024-01-24T08:45:20.409Z,13.40
2024-01-24T08:47:49.094Z,13.40
2024-01-24T08:50:17.707Z,13.50
2024-01-24T08:52:45.769Z,13.60
2024-01-24T08:55:15.346Z,13.60
2024-01-24T08:57:45.589Z,13.60
2024-01-24T09:00:16.070Z,13.50
2024-01-24T09:02:44.211Z,13.50
2024-01-24T09:05:12.946Z,13.60
2024-01-24T09:07:41.014Z,13.70
2024-01-24T09:10:10.946Z,13.80
2024-01-24T09:12:39.335Z,13.70
2024-01-24T09:15:08.646Z,13.60
2024-01-24T09:17:38.238Z,13.50
2024-01-24T09:20:09.147Z,13.70
2024-01-24T09:22:38.073Z,13.70
2024-01-24T09:25:08.820Z,13.70
2024-01-24T09:27:38.953Z,13.70
2024-01-24T09:30:08.491Z,13.70
2024-01-24T09:32:38.590Z,13.70
2024-01-24T09:35:07.700Z,13.70
2024-01-24T09:37:35.910Z,13.70
2024-01-24T09:40:04.937Z,13.70
2024-01-24T09:42:37.821Z,13.60
2024-01-24T09:45:10.228Z,13.50
2024-01-24T09:47:40.020Z,13.30
2024-01-24T09:50:11.126Z,13.30
2024-01-24T09:52:39.706Z,13.30
2024-01-24T09:55:12.612Z,13.40
2024-01-24T09:57:42.258Z,13.20
2024-01-24T10:00:11.334Z,13.40
2024-01-24T10:02:42.128Z,13.50
2024-01-24T10:05:15.316Z,13.50
2024-01-24T10:07:44.307Z,13.50
2024-01-24T10:10:15.313Z,13.60
2024-01-24T10:12:44.136Z,13.80
2024-01-24T10:15:13.820Z,13.90
2024-01-24T10:17:43.980Z,13.80
2024-01-24T10:20:14.347Z,13.90
2024-01-24T10:22:45.828Z,13.90
2024-01-24T10:25:14.695Z,13.80
2024-01-24T10:27:43.755Z,13.70
2024-01-24T10:30:14.620Z,13.80
2024-01-24T10:32:46.984Z,13.80
2024-01-24T10:35:16.393Z,13.90
2024-01-24T10:37:44.548Z,14.00
2024-01-24T10:40:17.941Z,14.10
2024-01-24T10:42:49.906Z,14.20
2024-01-24T10:45:22.296Z,14.20
2024-01-24T10:47:55.334Z,14.30
2024-01-24T10:50:23.498Z,14.40
2024-01-24T10:52:55.061Z,14.50
2024-01-24T10:55:24.587Z,14.60
2024-01-24T10:57:54.744Z,14.80
2024-01-24T11:00:24.001Z,14.90
2024-01-24T11:02:55.831Z,14.90
2024-01-24T11:05:29.126Z,14.80
2024-01-24T11:08:02.121Z,14.50
2024-01-24T11:10:34.169Z,13.90
2024-01-24T11:13:03.724Z,13.50
2024-01-24T11:15:32.527Z,13.30
2024-01-24T11:18:26.467Z,13.10
2024-01-24T11:20:56.484Z,13.00
2024-01-24T11:23:40.039Z,12.80
2024-01-24T11:26:09.017Z,12.70
2024-01-24T11:28:37.667Z,12.70
2024-01-24T11:31:08.399Z,12.70
2024-01-24T11:33:39.334Z,12.70
2024-01-24T11:36:14.934Z,12.80
2024-01-24T11:38:48.280Z,12.80
2024-01-24T11:41:27.937Z,12.90
2024-01-24T11:43:58.202Z,12.80
2024-01-24T11:46:27.044Z,13.00
2024-01-24T11:49:07.771Z,13.00
2024-01-24T11:51:36.846Z,12.90
2024-01-24T11:54:04.980Z,12.90
2024-01-24T11:56:36.545Z,12.90
2024-01-24T11:59:04.670Z,12.90
2024-01-24T12:01:33.590Z,12.80
2024-01-24T12:04:03.250Z,12.90
2024-01-24T12:06:33.413Z,13.00
2024-01-24T12:09:02.187Z,13.20
2024-01-24T12:11:30.234Z,13.40
2024-01-24T12:13:58.819Z,13.30
2024-01-24T12:16:27.717Z,13.30
2024-01-24T12:18:56.498Z,13.30
2024-01-24T12:21:28.564Z,13.30
2024-01-24T12:23:57.579Z,13.20
2024-01-24T12:26:26.714Z,13.30
2024-01-24T12:28:55.336Z,13.30
2024-01-24T12:31:23.779Z,13.40
2024-01-24T12:33:55.850Z,13.50
2024-01-24T12:36:26.404Z,13.50
2024-01-24T12:38:57.940Z,13.40
2024-01-24T12:41:27.581Z,13.40
2024-01-24T12:43:57.905Z,13.50
2024-01-24T12:46:27.824Z,13.60
2024-01-24T12:48:59.848Z,13.60
2024-01-24T12:51:29.404Z,13.60
2024-01-24T12:53:57.979Z,13.80
2024-01-24T12:56:26.982Z,14.10
2024-01-24T12:58:56.761Z,13.90
2024-01-24T13:01:25.491Z,14.00
2024-01-24T13:03:54.538Z,14.10
2024-01-24T13:06:23.822Z,13.90
2024-01-24T13:11:39.891Z,13.90
2024-01-24T13:14:07.986Z,13.90
2024-01-24T13:16:36.396Z,13.90
2024-01-24T13:19:05.933Z,13.90
2024-01-24T13:21:34.091Z,13.90
2024-01-24T13:24:04.697Z,13.90
2024-01-24T13:26:33.198Z,13.90
2024-01-24T13:29:01.617Z,13.60
2024-01-24T13:31:29.713Z,13.40
2024-01-24T13:33:58.346Z,13.30
2024-01-24T13:36:26.543Z,13.20
2024-01-24T13:38:54.713Z,13.20
2024-01-24T13:41:25.163Z,13.20
2024-01-24T13:43:53.609Z,13.20
2024-01-24T13:46:21.974Z,13.20
2024-01-24T13:48:51.473Z,13.30
2024-01-24T13:51:26.823Z,13.30
2024-01-24T13:53:59.486Z,13.30
2024-01-24T13:56:28.946Z,13.40
2024-01-24T13:58:57.643Z,13.30
2024-01-24T14:01:26.120Z,13.40
2024-01-24T14:03:54.254Z,13.40
2024-01-24T14:06:23.238Z,13.50
2024-01-24T14:08:51.794Z,13.60
2024-01-24T14:11:20.172Z,13.60
2024-01-24T14:13:50.727Z,13.60
2024-01-24T14:16:19.769Z,13.70
2024-01-24T14:18:48.246Z,13.70
2024-01-24T14:21:16.415Z,13.90
2024-01-24T14:23:44.996Z,13.90
2024-01-24T14:26:15.286Z,13.70
2024-01-24T14:28:43.342Z,13.60
2024-01-24T14:31:13.097Z,13.60
2024-01-24T14:33:41.380Z,13.50
2024-01-24T14:36:09.818Z,13.40
2024-01-24T14:38:38.260Z,13.40
2024-01-24T14:41:06.315Z,13.40
2024-01-24T14:43:34.363Z,13.40
2024-01-24T14:46:02.847Z,13.30
2024-01-24T14:48:32.791Z,13.20
2024-01-24T14:51:00.926Z,13.10
2024-01-24T14:53:29.601Z,13.00
2024-01-24T14:55:57.673Z,13.00
2024-01-24T14:58:25.758Z,13.00
2024-01-24T15:00:54.178Z,12.90
2024-01-24T15:03:22.324Z,12.90
2024-01-24T15:05:51.798Z,12.80
2024-01-24T15:08:23.322Z,12.80
2024-01-24T15:10:52.780Z,12.80
2024-01-24T15:13:20.834Z,12.80
2024-01-24T15:15:50.859Z,12.80
2024-01-24T15:18:20.547Z,12.70
2024-01-24T15:20:57.813Z,12.70
2024-01-24T15:23:36.296Z,12.70
2024-01-24T15:26:04.806Z,12.70
2024-01-24T15:28:34.168Z,12.60
2024-01-24T15:31:03.936Z,12.60
2024-01-24T15:33:33.244Z,12.50
2024-01-24T15:36:01.630Z,12.50
2024-01-24T15:38:29.970Z,12.40
2024-01-24T15:40:59.459Z,12.50
2024-01-24T15:43:28.091Z,12.50
2024-01-24T15:45:58.382Z,12.50
2024-01-24T15:48:26.600Z,12.40
2024-01-24T15:50:54.849Z,12.40
2024-01-24T15:53:23.135Z,12.40
2024-01-24T15:55:51.485Z,12.30
2024-01-24T15:58:21.038Z,12.30
2024-01-24T16:00:49.699Z,12.30
2024-01-24T16:03:22.020Z,12.30
2024-01-24T16:05:51.255Z,12.20
2024-01-24T16:08:22.748Z,12.20
2024-01-24T16:10:52.676Z,12.20
2024-01-24T16:13:22.487Z,12.20
2024-01-24T16:15:51.491Z,12.10
2024-01-24T16:18:20.060Z,12.10
2024-01-24T16:20:48.139Z,12.10
2024-01-24T16:23:16.537Z,12.00
2024-01-24T16:25:44.893Z,12.10
2024-01-24T16:28:15.573Z,12.10
2024-01-24T16:30:45.703Z,12.10
2024-01-24T16:33:13.992Z,12.10
2024-01-24T16:35:42.081Z,12.00
2024-01-24T16:38:10.632Z,11.80
2024-01-24T16:40:38.746Z,11.80
2024-01-24T16:43:06.785Z,11.80
2024-01-24T16:45:35.183Z,11.80
2024-01-24T16:48:05.056Z,11.80
2024-01-24T16:50:33.263Z,11.70
2024-01-24T16:53:01.822Z,11.60
2024-01-24T16:55:31.486Z,11.70
2024-01-24T16:57:59.596Z,11.70
2024-01-24T17:00:27.971Z,11.80
2024-01-24T17:02:58.506Z,11.70
2024-01-24T17:05:29.085Z,11.70
2024-01-24T17:07:57.220Z,11.70
2024-01-24T17:10:25.763Z,11.60
2024-01-24T17:12:54.217Z,11.50
2024-01-24T17:15:22.361Z,11.50
2024-01-24T17:17:50.542Z,11.50
2024-01-24T17:20:18.963Z,11.50
2024-01-24T17:22:48.302Z,11.40
2024-01-24T17:25:18.507Z,11.40
2024-01-24T17:27:46.651Z,11.40
2024-01-24T17:30:15.096Z,11.40
2024-01-24T17:32:44.100Z,11.50
2024-01-24T17:35:12.328Z,11.50
2024-01-24T17:37:40.683Z,11.30
2024-01-24T17:40:11.517Z,11.30
2024-01-24T17:42:40.189Z,11.40
2024-01-24T17:45:08.952Z,11.40
2024-01-24T17:47:37.425Z,11.30
2024-01-24T17:50:06.748Z,11.30
2024-01-24T17:52:36.835Z,11.20
2024-01-24T17:55:06.420Z,11.10
2024-01-24T17:57:36.351Z,11.00
2024-01-24T18:00:06.365Z,11.10
2024-01-24T18:02:34.728Z,11.20
2024-01-24T18:05:03.125Z,11.00
2024-01-24T18:07:32.266Z,11.00
2024-01-24T18:10:00.633Z,11.00
2024-01-24T18:12:29.430Z,10.90
2024-01-24T18:14:58.875Z,10.80
2024-01-24T18:17:28.201Z,10.60
2024-01-24T18:19:57.115Z,10.80
2024-01-24T18:22:25.693Z,10.80
2024-01-24T18:24:54.031Z,10.90
2024-01-24T18:27:22.544Z,10.80
2024-01-24T18:29:53.512Z,10.80
2024-01-24T18:32:23.544Z,10.90
2024-01-24T18:34:51.869Z,11.00
2024-01-24T18:37:20.159Z,10.90
2024-01-24T18:39:48.975Z,10.80
2024-01-24T18:42:17.203Z,10.60
2024-01-24T18:44:45.350Z,10.30
2024-01-24T18:47:13.945Z,10.50
2024-01-24T18:49:45.148Z,10.70
2024-01-24T18:52:14.975Z,10.60
2024-01-24T18:54:45.225Z,10.60
2024-01-24T18:57:14.042Z,10.50
2024-01-24T18:59:42.600Z,10.50
2024-01-24T19:02:12.941Z,10.30
2024-01-24T19:04:44.653Z,10.40
2024-01-24T19:07:13.880Z,10.50
2024-01-24T19:09:42.221Z,10.40
2024-01-24T19:12:11.377Z,10.20
2024-01-24T19:14:41.466Z,10.30
2024-01-24T19:17:10.098Z,10.40
2024-01-24T19:19:38.635Z,10.40
2024-01-24T19:22:08.153Z,10.60
2024-01-24T19:24:36.332Z,10.70
2024-01-24T19:27:05.235Z,10.70
2024-01-24T19:29:33.576Z,10.60
2024-01-24T19:32:03.344Z,10.50
2024-01-24T19:34:31.838Z,10.50
2024-01-24T19:37:00.620Z,10.40
2024-01-24T19:39:30.892Z,10.20
2024-01-24T19:41:59.694Z,10.10
2024-01-24T19:44:27.950Z,10.20
2024-01-24T19:46:57.244Z,10.30
2024-01-24T19:49:26.234Z,10.20
2024-01-24T19:51:54.529Z,10.20
2024-01-24T19:54:22.674Z,10.30
2024-01-24T19:56:52.987Z,10.20
2024-01-24T19:59:22.217Z,10.30
2024-01-24T20:01:50.449Z,10.40
2024-01-24T20:04:19.784Z,10.30
2024-01-24T20:06:48.038Z,10.20
2024-01-24T20:09:16.557Z,10.20
2024-01-24T20:11:44.963Z,10.10
2024-01-24T20:14:14.837Z,10.30
2024-01-24T20:16:43.350Z,10.40
2024-01-24T20:19:11.801Z,10.40
2024-01-24T20:21:41.490Z,10.40
2024-01-24T20:24:11.091Z,10.40
2024-01-24T20:26:39.659Z,10.30
2024-01-24T20:29:09.617Z,10.40
2024-01-24T20:31:39.428Z,10.40
2024-01-24T20:34:07.749Z,10.40
2024-01-24T20:37:26.579Z,10.30
2024-01-24T20:39:54.704Z,10.30
2024-01-24T20:42:28.849Z,10.20
2024-01-24T20:44:58.986Z,10.20
2024-01-24T20:47:28.703Z,10.10
2024-01-24T20:49:57.150Z,10.10
2024-01-24T20:52:25.425Z,10.00
2024-01-24T20:54:53.565Z,10.00
2024-01-24T20:57:21.829Z,10.10
2024-01-24T20:59:50.562Z,10.10
2024-01-24T21:02:19.139Z,10.10
2024-01-24T21:04:48.724Z,10.10
2024-01-24T21:07:17.240Z,10.10
2024-01-24T21:09:45.378Z,10.10
2024-01-24T21:12:13.555Z,10.10
2024-01-24T21:14:41.755Z,10.10
2024-01-24T21:17:10.192Z,10.00
2024-01-24T21:19:38.839Z,10.00
2024-01-24T21:22:08.587Z,10.10
2024-01-24T21:24:36.776Z,10.10
2024-01-24T21:27:05.970Z,10.20
2024-01-24T21:29:34.128Z,10.10
2024-01-24T21:32:02.192Z,10.10
2024-01-24T21:34:30.965Z,10.20
2024-01-24T21:36:59.184Z,10.20
2024-01-24T21:39:28.972Z,10.20
2024-01-24T21:41:57.063Z,10.20
2024-01-24T21:44:25.071Z,10.10
2024-01-24T21:46:53.316Z,10.00
2024-01-24T21:49:21.537Z,10.00
2024-01-24T21:51:49.962Z,10.10
2024-01-24T21:54:20.406Z,10.10
2024-01-24T21:56:49.952Z,10.20
2024-01-24T21:59:18.964Z,10.20
2024-01-24T22:01:47.176Z,10.20
2024-01-24T22:04:15.482Z,10.10
2024-01-24T22:06:44.213Z,10.00
2024-01-24T22:09:14.989Z,10.10
2024-01-24T22:11:43.123Z,10.10
2024-01-24T22:14:12.489Z,10.10
2024-01-24T22:16:40.594Z,10.10
2024-01-24T22:19:08.952Z,10.10
2024-01-24T22:21:41.484Z,10.20
2024-01-24T22:24:09.808Z,10.20
2024-01-24T22:26:38.810Z,10.20
2024-01-24T22:29:08.211Z,10.20
2024-01-24T22:31:38.040Z,10.40
2024-01-24T22:34:06.193Z,10.40
2024-01-24T22:36:34.552Z,10.30
2024-01-24T22:39:05.114Z,10.20
2024-01-24T22:41:33.156Z,10.30
2024-01-24T22:44:01.182Z,10.40
2024-01-24T22:46:29.365Z,10.40
2024-01-24T22:48:58.906Z,10.40
2024-01-24T22:51:27.358Z,10.30
2024-01-24T22:53:56.138Z,10.30
2024-01-24T22:56:24.209Z,10.20
2024-01-24T22:58:52.237Z,10.20
2024-01-24T23:01:20.638Z,10.50
2024-01-24T23:03:48.818Z,10.40
2024-01-24T23:06:18.537Z,10.20
2024-01-24T23:08:46.693Z,10.20
2024-01-24T23:11:14.884Z,10.20
2024-01-24T23:13:42.978Z,10.30
2024-01-24T23:16:12.088Z,10.40
2024-01-24T23:18:40.201Z,10.50
2024-01-24T23:21:08.328Z,10.40
2024-01-24T23:23:37.705Z,10.40
2024-01-24T23:26:06.074Z,10.30
2024-01-24T23:28:34.241Z,10.40
2024-01-24T23:31:02.473Z,10.40
2024-01-24T23:33:34.569Z,10.40
2024-01-24T23:36:04.124Z,10.40
2024-01-24T23:38:32.260Z,10.40
2024-01-24T23:41:02.425Z,10.30
2024-01-24T23:43:30.474Z,10.30
2024-01-24T23:45:58.639Z,10.30
2024-01-24T23:48:27.066Z,10.30
2024-01-24T23:50:55.551Z,10.30
2024-01-24T23:53:23.804Z,10.30
2024-01-24T23:55:52.021Z,10.40
2024-01-24T23:58:21.691Z,10.60
